createdAt,value
2022-11-14T00:00:34.189Z,97322.75
2022-11-14T00:03:02.655Z,97344.25
2022-11-14T00:05:29.624Z,97304.38
2022-11-14T00:07:55.981Z,97341.47
2022-11-14T00:10:22.613Z,97327.78
2022-11-14T00:12:49.045Z,97304.06
2022-11-14T00:15:15.710Z,97325.31
2022-11-14T00:17:42.940Z,97306.78
2022-11-14T00:20:12.084Z,97308.56
2022-11-14T00:22:38.529Z,97314.34
2022-11-14T00:25:05.387Z,97298.75
2022-11-14T00:27:31.966Z,97274.34
2022-11-14T00:29:58.376Z,97285.03
2022-11-14T00:32:24.819Z,97275.09
2022-11-14T00:34:51.264Z,97297.31
2022-11-14T00:37:17.902Z,97281.22
2022-11-14T00:39:44.348Z,97287.75
2022-11-14T00:42:10.733Z,97295.44
2022-11-14T00:44:37.134Z,97290.00
2022-11-14T00:47:03.542Z,97312.34
2022-11-14T00:49:30.207Z,97288.41
2022-11-14T00:51:56.813Z,97306.75
2022-11-14T00:54:23.305Z,97294.31
2022-11-14T00:56:49.728Z,97326.91
2022-11-14T00:59:16.126Z,97296.78
2022-11-14T01:01:42.631Z,97306.03
2022-11-14T01:04:09.334Z,97275.28
2022-11-14T01:06:35.690Z,97302.78
2022-11-14T01:09:02.122Z,97269.63
2022-11-14T01:11:28.497Z,97289.13
2022-11-14T01:13:54.877Z,97284.69
2022-11-14T01:16:21.342Z,97270.13
2022-11-14T01:18:47.818Z,97273.41
2022-11-14T01:21:15.189Z,97273.66
2022-11-14T01:23:41.834Z,97271.13
2022-11-14T01:26:13.378Z,97280.16
2022-11-14T01:28:40.663Z,97273.47
2022-11-14T01:31:16.904Z,97259.47
2022-11-14T01:33:43.937Z,97268.00
2022-11-14T01:36:11.077Z,97263.34
2022-11-14T01:38:38.040Z,97264.19
2022-11-14T01:41:05.564Z,97270.16
2022-11-14T01:43:37.648Z,97260.88
2022-11-14T01:46:05.497Z,97260.72
2022-11-14T01:48:32.476Z,97247.19
2022-11-14T01:51:11.111Z,97217.47
2022-11-14T01:53:37.656Z,97232.44
2022-11-14T01:56:07.609Z,97244.94
2022-11-14T01:58:37.057Z,97243.03
2022-11-14T02:01:03.648Z,97242.66
2022-11-14T02:03:30.111Z,97235.47
2022-11-14T02:05:57.073Z,97253.66
2022-11-14T02:08:25.239Z,97245.06
2022-11-14T02:10:51.715Z,97239.84
2022-11-14T02:13:18.191Z,97251.38
2022-11-14T02:15:44.615Z,97227.38
2022-11-14T02:18:12.461Z,97234.53
2022-11-14T02:20:43.247Z,97234.63
2022-11-14T02:23:13.277Z,97252.53
2022-11-14T02:25:40.063Z,97253.25
2022-11-14T02:28:09.563Z,97244.88
2022-11-14T02:30:36.033Z,97227.56
2022-11-14T02:33:11.204Z,97232.00
2022-11-14T02:35:38.187Z,97223.78
2022-11-14T02:38:04.574Z,97230.41
2022-11-14T02:40:31.064Z,97229.00
2022-11-14T02:42:57.594Z,97231.13
2022-11-14T02:45:24.009Z,97218.16
2022-11-14T02:47:50.533Z,97220.44
2022-11-14T02:50:17.428Z,97219.66
2022-11-14T02:52:44.150Z,97224.28
2022-11-14T02:55:11.442Z,97215.22
2022-11-14T02:57:37.844Z,97212.00
2022-11-14T03:00:07.701Z,97227.22
2022-11-14T03:02:38.203Z,97224.06
2022-11-14T03:05:04.977Z,97222.94
2022-11-14T03:07:31.547Z,97241.88
2022-11-14T03:09:58.036Z,97236.06
2022-11-14T03:12:24.458Z,97252.00
2022-11-14T03:14:50.903Z,97229.41
2022-11-14T03:17:17.324Z,97219.00
2022-11-14T03:19:43.694Z,97226.63
2022-11-14T03:22:10.095Z,97238.84
2022-11-14T03:24:36.509Z,97231.66
2022-11-14T03:27:02.852Z,97227.75
2022-11-14T03:29:29.294Z,97229.75
2022-11-14T03:31:55.687Z,97219.06
2022-11-14T03:34:22.078Z,97241.53
2022-11-14T03:36:48.585Z,97237.13
2022-11-14T03:39:15.061Z,97237.53
2022-11-14T03:41:41.444Z,97241.09
2022-11-14T03:44:07.829Z,97220.25
2022-11-14T03:46:34.591Z,97232.13
2022-11-14T03:49:01.422Z,97238.16
2022-11-14T03:51:27.802Z,97255.09
2022-11-14T03:53:54.595Z,97257.69
2022-11-14T03:56:21.039Z,97254.00
2022-11-14T03:58:47.480Z,97235.31
2022-11-14T04:01:14.001Z,97248.50
2022-11-14T04:03:40.478Z,97253.78
2022-11-14T04:06:07.008Z,97251.66
2022-11-14T04:08:33.645Z,97247.88
2022-11-14T04:11:00.286Z,97228.78
2022-11-14T04:13:26.938Z,97253.31
2022-11-14T04:15:57.831Z,97243.41
2022-11-14T04:18:25.637Z,97225.34
2022-11-14T04:20:52.553Z,97252.78
2022-11-14T04:23:19.794Z,97242.47
2022-11-14T04:25:46.686Z,97247.59
2022-11-14T04:28:14.275Z,97239.06
2022-11-14T04:30:41.197Z,97228.25
2022-11-14T04:33:07.893Z,97231.22
2022-11-14T04:35:34.324Z,97242.91
2022-11-14T04:38:00.776Z,97239.84
2022-11-14T04:40:27.150Z,97239.03
2022-11-14T04:42:53.515Z,97249.84
2022-11-14T04:45:19.929Z,97251.91
2022-11-14T04:47:46.333Z,97209.72
2022-11-14T04:50:12.755Z,97247.22
2022-11-14T04:52:39.151Z,97249.63
2022-11-14T04:55:05.922Z,97245.56
2022-11-14T04:57:32.312Z,97236.22
2022-11-14T04:59:58.794Z,97233.41
2022-11-14T05:02:25.195Z,97246.56
2022-11-14T05:04:51.676Z,97242.56
2022-11-14T05:07:18.432Z,97242.09
2022-11-14T05:09:44.894Z,97250.22
2022-11-14T05:12:11.306Z,97228.88
2022-11-14T05:14:37.766Z,97226.78
2022-11-14T05:17:04.234Z,97231.25
2022-11-14T05:19:30.643Z,97215.28
2022-11-14T05:21:57.334Z,97218.22
2022-11-14T05:24:23.866Z,97208.44
2022-11-14T05:26:50.288Z,97211.78
2022-11-14T05:29:16.657Z,97183.13
2022-11-14T05:31:43.049Z,97212.53
2022-11-14T05:34:09.454Z,97210.91
2022-11-14T05:36:35.854Z,97210.06
2022-11-14T05:39:02.294Z,97221.28
2022-11-14T05:41:28.702Z,97188.09
2022-11-14T05:43:55.091Z,97199.41
2022-11-14T05:46:21.476Z,97206.28
2022-11-14T05:48:47.937Z,97210.38
2022-11-14T05:51:14.390Z,97186.81
2022-11-14T05:53:41.635Z,97203.09
2022-11-14T05:56:11.551Z,97221.56
2022-11-14T05:58:38.238Z,97210.91
2022-11-14T06:01:10.286Z,97220.81
2022-11-14T06:03:42.414Z,97197.03
2022-11-14T06:06:12.245Z,97228.22
2022-11-14T06:08:39.087Z,97163.16
2022-11-14T06:11:14.154Z,97205.41
2022-11-14T06:13:40.927Z,97193.44
2022-11-14T06:16:10.926Z,97201.63
2022-11-14T06:18:38.009Z,97202.97
2022-11-14T06:21:16.593Z,97190.25
2022-11-14T06:23:43.438Z,97207.47
2022-11-14T06:26:18.313Z,97194.44
2022-11-14T06:28:44.684Z,97203.09
2022-11-14T06:31:11.116Z,97185.13
2022-11-14T06:33:37.674Z,97169.16
2022-11-14T06:36:06.312Z,97191.72
2022-11-14T06:38:34.689Z,97207.81
2022-11-14T06:41:12.278Z,97210.16
2022-11-14T06:43:41.021Z,97224.75
2022-11-14T06:46:09.437Z,97217.38
2022-11-14T06:48:36.477Z,97210.03
2022-11-14T06:51:04.341Z,97223.38
2022-11-14T06:53:32.993Z,97229.13
2022-11-14T06:56:08.171Z,97217.38
2022-11-14T06:58:38.965Z,97228.63
2022-11-14T07:01:07.699Z,97220.78
2022-11-14T07:03:34.787Z,97228.41
2022-11-14T07:06:02.132Z,97217.38
2022-11-14T07:08:29.209Z,97214.53
2022-11-14T07:11:11.374Z,97227.50
2022-11-14T07:13:38.493Z,97226.09
2022-11-14T07:16:05.479Z,97221.16
2022-11-14T07:18:33.573Z,97224.53
2022-11-14T07:21:05.881Z,97212.25
2022-11-14T07:23:33.987Z,97232.47
2022-11-14T07:26:08.908Z,97204.00
2022-11-14T07:28:36.861Z,97234.38
2022-11-14T07:31:04.571Z,97220.69
2022-11-14T07:33:32.480Z,97210.34
2022-11-14T07:35:59.272Z,97226.16
2022-11-14T07:38:26.067Z,97196.91
2022-11-14T07:40:59.992Z,97216.28
2022-11-14T07:43:28.219Z,97238.56
2022-11-14T07:45:58.826Z,97230.69
2022-11-14T07:48:25.226Z,97231.69
2022-11-14T07:50:51.683Z,97184.66
2022-11-14T07:53:19.196Z,97208.91
2022-11-14T07:55:45.570Z,97199.47
2022-11-14T07:58:12.046Z,97199.03
2022-11-14T08:00:38.464Z,97233.72
2022-11-14T08:03:07.404Z,97203.94
2022-11-14T08:05:34.192Z,97205.47
2022-11-14T08:08:00.597Z,97204.00
2022-11-14T08:10:32.351Z,97217.59
2022-11-14T08:13:29.870Z,97209.66
2022-11-14T08:15:48.079Z,97211.13
2022-11-14T08:18:14.580Z,97197.13
2022-11-14T08:20:41.058Z,97202.16
2022-11-14T08:23:07.485Z,97210.41
2022-11-14T08:25:33.980Z,97190.53
2022-11-14T08:28:00.396Z,97213.38
2022-11-14T08:30:26.840Z,97233.78
2022-11-14T08:32:53.409Z,97233.28
2022-11-14T08:35:19.905Z,97218.97
2022-11-14T08:37:46.341Z,97227.06
2022-11-14T08:40:12.936Z,97222.44
2022-11-14T08:42:39.441Z,97237.31
2022-11-14T08:45:06.301Z,97242.69
2022-11-14T08:47:33.027Z,97253.53
2022-11-14T08:49:59.421Z,97219.28
2022-11-14T08:52:25.988Z,97205.41
2022-11-14T08:54:52.473Z,97241.47
2022-11-14T08:57:19.145Z,97213.09
2022-11-14T08:59:45.555Z,97221.34
2022-11-14T09:02:13.655Z,97181.69
2022-11-14T09:04:40.656Z,97187.16
2022-11-14T09:07:07.702Z,97185.94
2022-11-14T09:09:34.149Z,97171.13
2022-11-14T09:12:00.530Z,97168.41
2022-11-14T09:14:26.923Z,97159.88
2022-11-14T09:16:53.354Z,97159.72
2022-11-14T09:19:19.729Z,97174.03
2022-11-14T09:21:46.105Z,97192.31
2022-11-14T09:24:12.583Z,97204.44
2022-11-14T09:26:38.980Z,97218.56
2022-11-14T09:29:06.459Z,97230.53
2022-11-14T09:31:33.006Z,97227.25
2022-11-14T09:33:59.473Z,97244.97
2022-11-14T09:36:25.844Z,97252.53
2022-11-14T09:38:52.323Z,97233.53
2022-11-14T09:42:05.436Z,97241.25
2022-11-14T09:44:45.810Z,97260.50
2022-11-14T09:47:20.694Z,97215.38
2022-11-14T09:49:51.430Z,97238.50
2022-11-14T09:52:47.561Z,97235.34
2022-11-14T09:55:16.628Z,97207.94
2022-11-14T09:57:44.514Z,97212.88
2022-11-14T10:00:15.361Z,97195.19
2022-11-14T10:03:06.804Z,97237.41
2022-11-14T10:05:54.121Z,97186.94
2022-11-14T10:08:42.734Z,97192.13
2022-11-14T10:11:13.888Z,97185.72
2022-11-14T10:14:21.860Z,97190.94
2022-11-14T10:17:45.762Z,97184.97
2022-11-14T10:20:34.791Z,97206.88
2022-11-14T10:23:13.193Z,97191.75
2022-11-14T10:25:47.313Z,97232.25
2022-11-14T10:28:25.846Z,97233.53
2022-11-14T10:31:10.871Z,97266.41
2022-11-14T10:33:55.999Z,97264.31
2022-11-14T10:36:49.713Z,97269.19
2022-11-14T10:39:23.890Z,97278.34
2022-11-14T10:41:58.920Z,97280.75
2022-11-14T10:44:35.543Z,97283.03
2022-11-14T10:47:06.811Z,97321.75
2022-11-14T10:49:36.514Z,97286.31
2022-11-14T10:52:07.448Z,97260.28
2022-11-14T10:54:46.046Z,97268.44
2022-11-14T10:57:17.088Z,97247.50
2022-11-14T10:59:43.560Z,97243.22
2022-11-14T11:02:10.140Z,97241.97
2022-11-14T11:04:38.834Z,97204.41
2022-11-14T11:07:08.329Z,97237.38
2022-11-14T11:09:56.244Z,97238.56
2022-11-14T11:12:38.827Z,97229.91
2022-11-14T11:15:16.903Z,97231.41
2022-11-14T11:17:58.634Z,97203.38
2022-11-14T11:20:36.199Z,97221.78
2022-11-14T11:23:11.605Z,97194.97
2022-11-14T11:25:40.156Z,97177.03
2022-11-14T11:28:21.045Z,97155.19
2022-11-14T11:31:02.609Z,97196.09
2022-11-14T11:33:37.169Z,97155.53
2022-11-14T11:36:17.698Z,97162.69
2022-11-14T11:38:45.147Z,97171.25
2022-11-14T11:44:16.958Z,97137.94
2022-11-14T11:46:57.856Z,97153.41
2022-11-14T11:49:34.563Z,97193.19
2022-11-14T11:52:11.679Z,97179.56
2022-11-14T11:55:19.900Z,97198.78
2022-11-14T11:58:12.962Z,97168.22
2022-11-14T12:00:40.348Z,97183.47
2022-11-14T12:03:13.647Z,97166.72
2022-11-14T12:06:20.371Z,97136.66
2022-11-14T12:09:01.897Z,97085.31
2022-11-14T12:11:32.965Z,97131.53
2022-11-14T12:14:23.620Z,97125.94
2022-11-14T12:17:02.452Z,97154.19
2022-11-14T12:19:32.091Z,97161.97
2022-11-14T12:22:22.983Z,97216.88
2022-11-14T12:25:08.772Z,97201.28
2022-11-14T12:27:51.394Z,97263.41
2022-11-14T12:30:23.441Z,97149.78
2022-11-14T12:32:58.686Z,97289.88
2022-11-14T12:35:32.285Z,97377.19
2022-11-14T12:38:02.065Z,97458.38
2022-11-14T12:40:35.834Z,97469.53
2022-11-14T12:43:03.524Z,97411.59
2022-11-14T12:45:36.125Z,97539.34
2022-11-14T12:48:32.132Z,97554.88
2022-11-14T12:51:00.562Z,97428.97
2022-11-14T12:53:36.079Z,97446.97
2022-11-14T12:56:30.659Z,97505.47
2022-11-14T12:59:03.007Z,97485.00
2022-11-14T13:01:54.351Z,97405.91
2022-11-14T13:04:42.478Z,97386.59
2022-11-14T13:07:38.373Z,97405.19
2022-11-14T13:10:13.825Z,97417.34
2022-11-14T13:13:16.416Z,97407.75
2022-11-14T13:16:08.299Z,97485.06
2022-11-14T13:18:53.776Z,97506.19
2022-11-14T13:21:43.786Z,97456.00
2022-11-14T13:24:17.131Z,97569.25
2022-11-14T13:26:46.034Z,97513.88
2022-11-14T13:29:40.136Z,97539.22
2022-11-14T13:32:11.450Z,97580.81
2022-11-14T13:34:46.889Z,97469.94
2022-11-14T13:37:39.769Z,97387.56
2022-11-14T13:40:36.821Z,97235.72
2022-11-14T13:43:47.698Z,97204.25
2022-11-14T13:46:24.839Z,97168.91
2022-11-14T13:48:51.186Z,97162.09
2022-11-14T13:51:42.184Z,97129.38
2022-11-14T13:54:18.058Z,97126.22
2022-11-14T13:57:05.885Z,97126.94
2022-11-14T13:59:52.497Z,97135.19
2022-11-14T14:02:40.960Z,97144.72
2022-11-14T14:05:29.214Z,97138.19
2022-11-14T14:08:04.651Z,97133.63
2022-11-14T14:10:42.882Z,97097.47
2022-11-14T14:13:36.599Z,97118.94
2022-11-14T14:16:31.732Z,97113.81
2022-11-14T14:19:25.742Z,97127.25
2022-11-14T14:22:15.438Z,97171.56
2022-11-14T14:24:59.451Z,97164.31
2022-11-14T14:27:32.360Z,97178.22
2022-11-14T14:30:15.890Z,97188.06
2022-11-14T14:32:42.326Z,97191.81
2022-11-14T14:35:29.727Z,97195.53
2022-11-14T14:37:57.673Z,97209.56
2022-11-14T14:40:27.144Z,97214.94
2022-11-14T14:42:55.049Z,97217.47
2022-11-14T14:45:23.895Z,97219.28
2022-11-14T14:48:05.478Z,97207.88
2022-11-14T14:50:39.660Z,97206.44
2022-11-14T14:53:06.637Z,97218.31
2022-11-14T14:55:35.581Z,97171.63
2022-11-14T14:58:22.049Z,97215.69
2022-11-14T15:00:57.457Z,97218.13
2022-11-14T15:03:26.261Z,97216.69
2022-11-14T15:06:04.629Z,97225.94
2022-11-14T15:08:36.006Z,97215.22
2022-11-14T15:11:03.821Z,97173.16
2022-11-14T15:13:30.831Z,97221.66
2022-11-14T15:15:58.163Z,97225.28
2022-11-14T15:18:31.235Z,97220.66
2022-11-14T15:21:15.013Z,97221.97
2022-11-14T15:23:42.679Z,97215.59
2022-11-14T15:26:18.739Z,97202.56
2022-11-14T15:28:45.750Z,97214.09
2022-11-14T15:31:22.372Z,97211.13
2022-11-14T15:34:03.525Z,97217.38
2022-11-14T15:36:29.995Z,97200.22
2022-11-14T15:39:03.893Z,97221.47
2022-11-14T15:41:34.176Z,97223.78
2022-11-14T15:44:05.146Z,97211.28
2022-11-14T15:46:34.300Z,97222.28
2022-11-14T15:49:07.122Z,97207.47
2022-11-14T15:51:54.188Z,97213.50
2022-11-14T15:54:33.330Z,97218.56
2022-11-14T15:57:12.887Z,97207.72
2022-11-14T15:59:40.410Z,97198.78
2022-11-14T16:02:19.730Z,97204.81
2022-11-14T16:04:48.031Z,97183.94
2022-11-14T16:07:16.750Z,97194.22
2022-11-14T16:09:44.104Z,97185.50
2022-11-14T16:12:11.260Z,97168.41
2022-11-14T16:14:37.890Z,97156.91
2022-11-14T16:17:04.627Z,97139.16
2022-11-14T16:19:32.128Z,97108.97
2022-11-14T16:22:03.112Z,97097.47
2022-11-14T16:24:34.135Z,97111.50
2022-11-14T16:27:01.533Z,97085.34
2022-11-14T16:29:28.261Z,97078.16
2022-11-14T16:31:55.376Z,97050.09
2022-11-14T16:34:24.435Z,97047.63
2022-11-14T16:36:58.379Z,97036.50
2022-11-14T16:39:24.894Z,97031.91
2022-11-14T16:41:51.340Z,97032.84
2022-11-14T16:44:18.689Z,97030.66
2022-11-14T16:46:46.071Z,97038.09
2022-11-14T16:49:17.251Z,97032.47
2022-11-14T16:51:48.776Z,97029.16
2022-11-14T16:54:17.762Z,96996.34
2022-11-14T16:56:44.305Z,97014.56
2022-11-14T16:59:10.890Z,97031.13
2022-11-14T17:01:38.213Z,97039.28
2022-11-14T17:04:04.999Z,97043.28
2022-11-14T17:06:31.672Z,97042.81
2022-11-14T17:08:59.435Z,97031.00
2022-11-14T17:11:26.813Z,97027.06
2022-11-14T17:13:55.237Z,97022.66
2022-11-14T17:16:21.785Z,97024.91
2022-11-14T17:18:53.830Z,97017.69
2022-11-14T17:21:20.922Z,97008.72
2022-11-14T17:23:47.311Z,96993.47
2022-11-14T17:26:13.977Z,97021.19
2022-11-14T17:28:41.455Z,97025.56
2022-11-14T17:31:08.557Z,97024.22
2022-11-14T17:33:35.617Z,97039.78
2022-11-14T17:36:09.822Z,97027.22
2022-11-14T17:38:38.376Z,97023.91
2022-11-14T17:41:06.026Z,97029.78
2022-11-14T17:43:39.565Z,97016.84
2022-11-14T17:46:12.696Z,97022.91
2022-11-14T17:48:41.989Z,97016.66
2022-11-14T17:51:12.181Z,97010.28
2022-11-14T17:53:38.670Z,97024.88
2022-11-14T17:56:05.213Z,97025.19
2022-11-14T17:58:32.552Z,97017.97
2022-11-14T18:00:59.756Z,97008.44
2022-11-14T18:03:27.368Z,97030.09
2022-11-14T18:06:04.751Z,97046.09
2022-11-14T18:08:31.485Z,97033.97
2022-11-14T18:11:02.277Z,97014.38
2022-11-14T18:13:28.750Z,97017.91
2022-11-14T18:15:55.149Z,97003.63
2022-11-14T18:18:21.504Z,97016.50
2022-11-14T18:20:47.914Z,97022.06
2022-11-14T18:23:14.278Z,97021.09
2022-11-14T18:25:40.679Z,97012.94
2022-11-14T18:28:07.064Z,97019.78
2022-11-14T18:30:41.601Z,97031.91
2022-11-14T18:33:08.377Z,97022.25
2022-11-14T18:35:34.994Z,97027.63
2022-11-14T18:38:01.481Z,96986.97
2022-11-14T18:40:27.854Z,96995.94
2022-11-14T18:42:54.476Z,97007.16
2022-11-14T18:45:20.856Z,96993.25
2022-11-14T18:47:47.243Z,96990.63
2022-11-14T18:50:14.122Z,96972.75
2022-11-14T18:52:40.494Z,96973.00
2022-11-14T18:55:07.975Z,96966.94
2022-11-14T18:57:34.432Z,96949.06
2022-11-14T19:00:00.858Z,96937.34
2022-11-14T19:02:27.300Z,96934.59
2022-11-14T19:04:53.725Z,96901.91
2022-11-14T19:07:20.206Z,96895.66
2022-11-14T19:09:46.762Z,96862.38
2022-11-14T19:12:20.899Z,96869.44
2022-11-14T19:14:49.679Z,96876.56
2022-11-14T19:17:20.652Z,96895.38
2022-11-14T19:19:53.676Z,96872.06
2022-11-14T19:22:21.095Z,96928.28
2022-11-14T19:24:47.530Z,96957.63
2022-11-14T19:27:14.706Z,96943.44
2022-11-14T19:29:41.289Z,96982.63
2022-11-14T19:32:08.365Z,96964.56
2022-11-14T19:34:34.872Z,96994.59
2022-11-14T19:37:01.531Z,97016.69
2022-11-14T19:39:28.645Z,97026.53
2022-11-14T19:41:55.036Z,97028.44
2022-11-14T19:44:21.448Z,97041.13
2022-11-14T19:46:48.327Z,97043.09
2022-11-14T19:49:15.352Z,97063.63
2022-11-14T19:51:42.271Z,97064.50
2022-11-14T19:54:09.902Z,97053.03
2022-11-14T19:56:36.439Z,97059.44
2022-11-14T19:59:03.214Z,97065.97
2022-11-14T20:01:29.730Z,97071.75
2022-11-14T20:03:59.151Z,97099.47
2022-11-14T20:06:28.190Z,97105.84
2022-11-14T20:08:55.728Z,97130.19
2022-11-14T20:11:23.372Z,97119.22
2022-11-14T20:13:49.822Z,97110.06
2022-11-14T20:16:18.783Z,97118.78
2022-11-14T20:18:49.875Z,97129.94
2022-11-14T20:21:21.338Z,97138.41
2022-11-14T20:23:48.964Z,97153.53
2022-11-14T20:26:16.849Z,97129.22
2022-11-14T20:28:44.974Z,97146.00
2022-11-14T20:31:16.758Z,97134.63
2022-11-14T20:33:46.165Z,97138.91
2022-11-14T20:36:15.008Z,97091.84
2022-11-14T20:38:42.164Z,97093.28
2022-11-14T20:41:09.985Z,97096.38
2022-11-14T20:43:36.420Z,97090.44
2022-11-14T20:46:09.526Z,97100.88
2022-11-14T20:48:35.996Z,97096.09
2022-11-14T20:51:22.591Z,97081.25
2022-11-14T20:53:50.962Z,97047.47
2022-11-14T20:56:17.753Z,97052.31
2022-11-14T20:58:45.509Z,97057.56
2022-11-14T21:01:12.384Z,97068.25
2022-11-14T21:03:39.612Z,97048.16
2022-11-14T21:06:07.744Z,97065.41
2022-11-14T21:08:35.865Z,97038.25
2022-11-14T21:11:05.002Z,97055.78
2022-11-14T21:13:53.569Z,97028.94
2022-11-14T21:16:20.320Z,97013.25
2022-11-14T21:18:48.263Z,97001.66
2022-11-14T21:21:19.147Z,97015.50
2022-11-14T21:23:47.084Z,97014.31
2022-11-14T21:26:16.833Z,97021.03
2022-11-14T21:28:45.269Z,97014.03
2022-11-14T21:31:27.057Z,97047.50
2022-11-14T21:33:59.176Z,97066.47
2022-11-14T21:39:14.836Z,97162.81
2022-11-14T21:41:41.834Z,97162.56
2022-11-14T21:44:12.050Z,97159.59
2022-11-14T21:46:38.967Z,97159.31
2022-11-14T21:49:05.605Z,97148.97
2022-11-14T21:51:32.473Z,97137.47
2022-11-14T21:53:59.338Z,97165.94
2022-11-14T21:56:28.149Z,97168.72
2022-11-14T21:59:12.496Z,97197.44
2022-11-14T22:01:59.862Z,97182.22
2022-11-14T22:04:26.526Z,97199.47
2022-11-14T22:06:53.399Z,97197.06
2022-11-14T22:09:20.168Z,97210.94
2022-11-14T22:11:46.794Z,97200.94
2022-11-14T22:14:13.362Z,97215.00
2022-11-14T22:16:39.925Z,97208.88
2022-11-14T22:19:06.621Z,97217.34
2022-11-14T22:21:35.173Z,97223.22
2022-11-14T22:24:01.935Z,97240.72
2022-11-14T22:26:28.584Z,97246.44
2022-11-14T22:28:54.941Z,97258.19
2022-11-14T22:31:23.327Z,97240.34
2022-11-14T22:33:53.945Z,97250.38
2022-11-14T22:36:22.706Z,97247.84
2022-11-14T22:38:51.096Z,97259.38
2022-11-14T22:41:24.368Z,97256.66
2022-11-14T22:43:55.065Z,97260.50
2022-11-14T22:46:21.860Z,97252.69
2022-11-14T22:48:49.384Z,97252.19
2022-11-14T22:51:21.676Z,97255.56
2022-11-14T22:53:51.036Z,97265.28
2022-11-14T22:56:19.894Z,97262.50
2022-11-14T22:58:46.951Z,97263.47
2022-11-14T23:01:18.119Z,97253.94
2022-11-14T23:03:44.828Z,97244.34
2022-11-14T23:06:16.677Z,97271.94
2022-11-14T23:08:43.518Z,97259.94
2022-11-14T23:11:13.046Z,97256.13
2022-11-14T23:13:41.964Z,97245.66
2022-11-14T23:16:09.648Z,97220.34
2022-11-14T23:18:36.767Z,97202.69
2022-11-14T23:21:10.439Z,97211.00
2022-11-14T23:23:38.014Z,97244.69
2022-11-14T23:26:10.865Z,97247.44
2022-11-14T23:28:37.544Z,97239.38
2022-11-14T23:31:04.234Z,97252.88
2022-11-14T23:33:31.046Z,97257.66
2022-11-14T23:35:58.214Z,97263.97
2022-11-14T23:38:24.966Z,97271.03
2022-11-14T23:40:58.567Z,97274.69
2022-11-14T23:43:25.538Z,97281.25
2022-11-14T23:45:51.924Z,97273.28
2022-11-14T23:48:21.664Z,97271.44
2022-11-14T23:50:56.375Z,97250.91
2022-11-14T23:53:23.142Z,97271.63
2022-11-14T23:55:54.338Z,97275.66
2022-11-14T23:58:22.093Z,97262.13
